Time;durP1;ratioP1;P1;durP2;ratioP2;P2;SDS_P1;SDS_P2;PMS_P1;PMS_P2;Temp;Humidity;BMP_temperature;BMP_pressure;BME280_temperature;BME280_humidity;BME280_pressure;Samples;Min_cycle;Max_cycle;Signal;HPM_P1;HPM_P2
2023/02/27 00:01:24;;;;;;;7.32;2.55;;;;;;;;;;5040076;28;20029;-76
2023/02/27 00:03:50;;;;;;;7.55;2.90;;;;;;;;;;5066291;28;20564;-75
2023/02/27 00:06:16;;;;;;;6.88;2.20;;;;;;;;;;5047174;28;20029;-76
2023/02/27 00:08:43;;;;;;;5.05;2.75;;;;;;;;;;5058842;28;20032;-76
2023/02/27 00:11:09;;;;;;;6.93;2.67;;;;;;;;;;5070785;28;20150;-74
2023/02/27 00:13:35;;;;;;;9.20;3.00;;;;;;;;;;5059233;28;20035;-76
2023/02/27 00:16:01;;;;;;;7.60;2.75;;;;;;;;;;5064571;28;20029;-76
2023/02/27 00:18:27;;;;;;;6.63;2.65;;;;;;;;;;5048573;28;20033;-76
2023/02/27 00:20:53;;;;;;;6.82;2.78;;;;;;;;;;5057809;28;20439;-76
2023/02/27 00:23:19;;;;;;;6.53;2.63;;;;;;;;;;5053732;28;20402;-76
2023/02/27 00:25:45;;;;;;;5.75;2.35;;;;;;;;;;5061045;28;20367;-78
2023/02/27 00:28:11;;;;;;;7.03;2.90;;;;;;;;;;5063027;28;20074;-76
2023/02/27 00:30:37;;;;;;;7.75;3.05;;;;;;;;;;5068070;28;20028;-77
2023/02/27 00:33:03;;;;;;;4.68;2.10;;;;;;;;;;5062256;28;20025;-76
2023/02/27 00:35:29;;;;;;;5.78;2.25;;;;;;;;;;5081040;28;20091;-76
2023/02/27 00:37:55;;;;;;;4.20;2.35;;;;;;;;;;5073220;28;20483;-76
2023/02/27 00:40:24;;;;;;;3.28;2.42;;;;;;;;;;5080070;28;20055;-76
2023/02/27 00:42:50;;;;;;;6.47;2.83;;;;;;;;;;5039875;28;20053;-76
2023/02/27 00:45:16;;;;;;;5.50;2.60;;;;;;;;;;5070169;28;20106;-76
2023/02/27 00:47:43;;;;;;;6.50;2.85;;;;;;;;;;5059042;28;20052;-75
2023/02/27 00:50:09;;;;;;;7.70;3.53;;;;;;;;;;5045221;28;20029;-76
2023/02/27 00:52:35;;;;;;;10.68;5.32;;;;;;;;;;5067181;28;20025;-77
2023/02/27 00:55:01;;;;;;;8.25;3.97;;;;;;;;;;5038234;28;20408;-77
2023/02/27 00:57:27;;;;;;;8.85;4.22;;;;;;;;;;5068230;28;20033;-77
2023/02/27 00:59:53;;;;;;;10.55;4.45;;;;;;;;;;5060890;28;20131;-77
2023/02/27 01:02:20;;;;;;;12.82;4.60;;;;;;;;;;5061906;28;20485;-77
2023/02/27 01:04:46;;;;;;;13.10;4.68;;;;;;;;;;5068540;28;20394;-77
2023/02/27 01:07:12;;;;;;;12.10;4.07;;;;;;;;;;5056357;28;20025;-78
2023/02/27 01:09:38;;;;;;;10.52;3.95;;;;;;;;;;5067161;28;20091;-78
2023/02/27 01:12:04;;;;;;;7.57;3.65;;;;;;;;;;5062320;28;20392;-78
2023/02/27 01:14:30;;;;;;;8.32;3.83;;;;;;;;;;5059771;28;20403;-77
2023/02/27 01:16:57;;;;;;;5.78;3.50;;;;;;;;;;5069248;28;20029;-77
2023/02/27 01:19:23;;;;;;;6.47;3.15;;;;;;;;;;5051018;28;20024;-77
2023/02/27 01:21:49;;;;;;;10.18;3.50;;;;;;;;;;5059602;28;20489;-78
2023/02/27 01:24:15;;;;;;;5.65;3.25;;;;;;;;;;5061499;28;20029;-77
2023/02/27 01:26:41;;;;;;;7.82;3.30;;;;;;;;;;5067058;28;20024;-77
2023/02/27 01:29:07;;;;;;;9.63;3.90;;;;;;;;;;5054253;28;20060;-77
2023/02/27 01:31:34;;;;;;;7.20;3.47;;;;;;;;;;5058029;28;20028;-77
2023/02/27 01:34:00;;;;;;;9.23;3.92;;;;;;;;;;5072649;28;20027;-77
2023/02/27 01:36:26;;;;;;;10.10;4.07;;;;;;;;;;5060147;28;20045;-77
2023/02/27 01:38:52;;;;;;;6.95;3.72;;;;;;;;;;5067901;28;20129;-78
2023/02/27 01:41:18;;;;;;;11.02;4.47;;;;;;;;;;5037882;28;20107;-77
2023/02/27 01:43:56;;;;;;;8.82;3.80;;;;;;;;;;5065416;28;20108;-77
2023/02/27 01:46:23;;;;;;;7.38;3.55;;;;;;;;;;5064161;28;20052;-78
2023/02/27 01:48:53;;;;;;;6.25;3.25;;;;;;;;;;5056104;28;20489;-78
2023/02/27 01:51:20;;;;;;;7.28;3.53;;;;;;;;;;5071168;28;20020;-77
2023/02/27 01:53:47;;;;;;;6.18;3.53;;;;;;;;;;5064939;28;20025;-76
2023/02/27 01:56:22;;;;;;;4.85;3.28;;;;;;;;;;5062222;28;20046;-76
2023/02/27 01:58:49;;;;;;;6.22;3.55;;;;;;;;;;5056198;28;20039;-77
2023/02/27 02:01:15;;;;;;;6.45;3.67;;;;;;;;;;5050429;28;20519;-77
2023/02/27 02:03:41;;;;;;;6.05;3.20;;;;;;;;;;5058206;28;20065;-76
2023/02/27 02:06:09;;;;;;;9.30;4.10;;;;;;;;;;5061123;28;20399;-78
2023/02/27 02:08:36;;;;;;;6.00;3.35;;;;;;;;;;5064907;28;20075;-77
2023/02/27 02:11:03;;;;;;;6.82;3.33;;;;;;;;;;5055012;28;20028;-76
2023/02/27 02:13:29;;;;;;;8.02;3.25;;;;;;;;;;5066776;28;20494;-77
2023/02/27 02:16:01;;;;;;;4.53;3.20;;;;;;;;;;5041750;28;20024;-77
2023/02/27 02:18:38;;;;;;;4.90;2.60;;;;;;;;;;5058587;28;20039;-77
2023/02/27 02:21:18;;;;;;;5.97;3.20;;;;;;;;;;5067785;28;20024;-77
2023/02/27 02:23:53;;;;;;;6.78;3.15;;;;;;;;;;5051660;28;20047;-76
2023/02/27 02:26:19;;;;;;;6.97;3.85;;;;;;;;;;5062844;28;20029;-76
2023/02/27 02:29:04;;;;;;;7.38;3.00;;;;;;;;;;5056116;28;20039;-76
2023/02/27 02:31:33;;;;;;;3.95;2.25;;;;;;;;;;5051603;28;20399;-76
2023/02/27 02:34:17;;;;;;;10.00;2.97;;;;;;;;;;5051569;28;20029;-76
2023/02/27 02:36:50;;;;;;;4.72;2.25;;;;;;;;;;5048341;28;20146;-77
2023/02/27 02:39:29;;;;;;;6.50;2.85;;;;;;;;;;5033927;28;20029;-75
2023/02/27 02:41:55;;;;;;;3.97;2.60;;;;;;;;;;5051622;28;20056;-75
2023/02/27 02:44:34;;;;;;;10.55;3.25;;;;;;;;;;5052016;28;20036;-76
2023/02/27 02:47:00;;;;;;;7.45;2.80;;;;;;;;;;5049614;28;20032;-74
2023/02/27 02:49:30;;;;;;;6.68;2.97;;;;;;;;;;5037515;28;20035;-75
2023/02/27 02:52:13;;;;;;;11.00;2.97;;;;;;;;;;5052820;28;20407;-76
2023/02/27 02:55:12;;;;;;;8.88;3.50;;;;;;;;;;5039836;28;20372;-77
2023/02/27 02:57:38;;;;;;;8.85;3.22;;;;;;;;;;4993553;28;20423;-77
2023/02/27 03:00:14;;;;;;;5.78;2.92;;;;;;;;;;5053804;28;20071;-76
2023/02/27 03:02:53;;;;;;;8.68;3.00;;;;;;;;;;5056795;28;20041;-75
2023/02/27 03:05:25;;;;;;;9.85;3.30;;;;;;;;;;5049780;28;20053;-79
2023/02/27 03:07:54;;;;;;;8.65;3.40;;;;;;;;;;5058218;28;20020;-77
2023/02/27 03:10:20;;;;;;;8.07;3.70;;;;;;;;;;5059570;28;20021;-78
2023/02/27 03:12:49;;;;;;;5.60;3.38;;;;;;;;;;5066205;28;20067;-78
2023/02/27 03:15:17;;;;;;;4.82;3.08;;;;;;;;;;5051845;28;20021;-78
2023/02/27 03:18:02;;;;;;;5.05;3.45;;;;;;;;;;5058395;28;20052;-77
2023/02/27 03:20:31;;;;;;;5.03;3.08;;;;;;;;;;5062316;28;20013;-77
2023/02/27 03:22:59;;;;;;;4.63;3.30;;;;;;;;;;5071111;28;20079;-77
2023/02/27 03:25:26;;;;;;;8.13;3.22;;;;;;;;;;5058903;28;20056;-77
2023/02/27 03:27:58;;;;;;;7.47;3.60;;;;;;;;;;5066242;28;20045;-78
2023/02/27 03:30:27;;;;;;;6.05;2.80;;;;;;;;;;5049004;28;20025;-77
2023/02/27 03:32:53;;;;;;;4.35;2.65;;;;;;;;;;5040490;28;20096;-77
2023/02/27 03:35:19;;;;;;;12.00;3.35;;;;;;;;;;5074692;28;20104;-77
2023/02/27 03:37:51;;;;;;;9.52;3.20;;;;;;;;;;5074299;28;20020;-77
2023/02/27 03:40:17;;;;;;;7.03;3.70;;;;;;;;;;5063261;28;20021;-76
2023/02/27 03:42:49;;;;;;;5.75;3.10;;;;;;;;;;5051333;28;20051;-76
2023/02/27 03:45:36;;;;;;;4.78;3.13;;;;;;;;;;5057607;28;20020;-77
2023/02/27 03:48:02;;;;;;;5.32;3.22;;;;;;;;;;5064892;28;20479;-78
2023/02/27 03:50:28;;;;;;;9.65;3.45;;;;;;;;;;5066905;28;20126;-77
2023/02/27 03:52:54;;;;;;;6.70;3.47;;;;;;;;;;5073810;28;20082;-76
2023/02/27 03:55:22;;;;;;;7.35;3.20;;;;;;;;;;5054457;28;20071;-77
2023/02/27 03:57:50;;;;;;;7.68;3.35;;;;;;;;;;5036561;28;20036;-76
2023/02/27 04:00:18;;;;;;;6.07;2.92;;;;;;;;;;5054729;28;20029;-76
2023/02/27 04:02:45;;;;;;;8.73;3.45;;;;;;;;;;5068904;28;20107;-77
2023/02/27 04:05:11;;;;;;;7.57;3.22;;;;;;;;;;5057266;28;20039;-77
2023/02/27 04:07:41;;;;;;;5.80;2.78;;;;;;;;;;5067858;28;20025;-77
2023/02/27 04:10:22;;;;;;;4.63;2.50;;;;;;;;;;5045929;28;20028;-77
2023/02/27 04:12:48;;;;;;;;;;;;;;;;;;5040922;28;20031;-80
2023/02/27 04:15:23;;;;;;;5.72;3.03;;;;;;;;;;5070613;28;19964;-78
2023/02/27 04:18:04;;;;;;;5.55;2.63;;;;;;;;;;5060925;28;20478;-78
2023/02/27 04:20:33;;;;;;;8.43;2.88;;;;;;;;;;5042652;28;20029;-78
2023/02/27 04:23:04;;;;;;;5.55;3.03;;;;;;;;;;5070079;28;20032;-76
2023/02/27 04:25:41;;;;;;;7.22;2.95;;;;;;;;;;5058359;28;20078;-77
2023/02/27 04:28:18;;;;;;;6.20;2.95;;;;;;;;;;5063308;28;20037;-74
2023/02/27 04:30:55;;;;;;;10.55;3.40;;;;;;;;;;5067821;28;20111;-78
2023/02/27 04:33:42;;;;;;;6.07;3.35;;;;;;;;;;5040456;28;20471;-77
2023/02/27 04:36:14;;;;;;;5.85;3.13;;;;;;;;;;5063851;28;20112;-78
2023/02/27 04:38:47;;;;;;;4.18;2.80;;;;;;;;;;5052901;28;20028;-77
2023/02/27 04:41:16;;;;;;;6.80;3.03;;;;;;;;;;5069658;28;20036;-77
2023/02/27 04:43:43;;;;;;;5.28;2.38;;;;;;;;;;5059439;28;20021;-77
2023/02/27 04:46:11;;;;;;;4.15;2.15;;;;;;;;;;5063181;28;20116;-76
2023/02/27 04:48:44;;;;;;;6.47;2.67;;;;;;;;;;5066782;28;20025;-79
2023/02/27 04:51:11;;;;;;;4.30;2.42;;;;;;;;;;5056198;28;20021;-77
2023/02/27 04:53:45;;;;;;;3.28;2.38;;;;;;;;;;5067202;28;20467;-79
2023/02/27 04:56:14;;;;;;;4.15;2.65;;;;;;;;;;5063213;28;20025;-77
2023/02/27 04:58:41;;;;;;;6.88;2.90;;;;;;;;;;5058275;28;20536;-77
2023/02/27 05:01:30;;;;;;;4.47;2.40;;;;;;;;;;5069662;28;20474;-77
2023/02/27 05:03:57;;;;;;;5.25;2.75;;;;;;;;;;5043318;28;20029;-77
2023/02/27 05:06:27;;;;;;;5.00;2.38;;;;;;;;;;5060964;28;20052;-77
2023/02/27 05:08:53;;;;;;;7.55;3.13;;;;;;;;;;5068740;28;20054;-77
2023/02/27 05:11:30;;;;;;;4.35;2.83;;;;;;;;;;5056286;28;20470;-78
2023/02/27 05:13:59;;;;;;;6.63;3.10;;;;;;;;;;5072789;28;20029;-75
2023/02/27 05:16:28;;;;;;;7.05;3.30;;;;;;;;;;5060740;28;20091;-76
2023/02/27 05:18:54;;;;;;;7.63;3.30;;;;;;;;;;5068612;28;20086;-77
2023/02/27 05:21:20;;;;;;;9.60;2.90;;;;;;;;;;5038980;28;20032;-76
2023/02/27 05:23:55;;;;;;;5.72;2.70;;;;;;;;;;5067561;28;20037;-78
2023/02/27 05:26:30;;;;;;;5.28;2.58;;;;;;;;;;5062775;28;20487;-78
2023/02/27 05:29:09;;;;;;;7.85;3.03;;;;;;;;;;5053334;28;20039;-77
2023/02/27 05:31:38;;;;;;;7.03;2.58;;;;;;;;;;5071297;28;20017;-77
2023/02/27 05:34:07;;;;;;;5.80;2.65;;;;;;;;;;5056975;28;20029;-78
2023/02/27 05:36:36;;;;;;;7.97;2.83;;;;;;;;;;5074714;28;20028;-78
2023/02/27 05:39:03;;;;;;;6.90;4.20;;;;;;;;;;5073469;28;20048;-78
2023/02/27 05:41:32;;;;;;;6.05;3.33;;;;;;;;;;5088959;28;20055;-78
2023/02/27 05:44:03;;;;;;;5.68;3.70;;;;;;;;;;5082438;28;20044;-78
2023/02/27 05:46:31;;;;;;;9.07;4.07;;;;;;;;;;5093118;28;20036;-76
2023/02/27 05:49:03;;;;;;;10.40;4.45;;;;;;;;;;5066706;28;20032;-78
2023/02/27 05:51:31;;;;;;;7.35;3.75;;;;;;;;;;5062451;28;20028;-76
2023/02/27 05:53:59;;;;;;;6.00;3.08;;;;;;;;;;5064570;28;20044;-79
2023/02/27 05:56:26;;;;;;;12.27;3.90;;;;;;;;;;5035674;28;20053;-78
2023/02/27 05:59:13;;;;;;;7.63;4.63;;;;;;;;;;5068222;28;20024;-77
2023/02/27 06:01:39;;;;;;;8.60;4.95;;;;;;;;;;5044303;28;20039;-77
2023/02/27 06:04:05;;;;;;;12.02;5.63;;;;;;;;;;5061992;28;20037;-76
2023/02/27 06:06:31;;;;;;;13.18;6.43;;;;;;;;;;5065021;28;20446;-77
2023/02/27 06:08:57;;;;;;;13.70;6.10;;;;;;;;;;5054513;28;20029;-76
2023/02/27 06:11:24;;;;;;;12.70;5.68;;;;;;;;;;5067858;28;20545;-76
2023/02/27 06:13:50;;;;;;;13.20;6.50;;;;;;;;;;5051636;28;20094;-77
2023/02/27 06:16:16;;;;;;;13.23;5.82;;;;;;;;;;5062789;28;20036;-78
2023/02/27 06:18:42;;;;;;;11.07;5.07;;;;;;;;;;5057442;28;20053;-76
2023/02/27 06:21:08;;;;;;;13.57;5.85;;;;;;;;;;5069014;28;20028;-77
2023/02/27 06:23:35;;;;;;;8.93;4.90;;;;;;;;;;5039750;28;20039;-78
2023/02/27 06:26:01;;;;;;;8.80;4.03;;;;;;;;;;5062704;28;20025;-78
2023/02/27 06:28:27;;;;;;;7.63;4.25;;;;;;;;;;5063842;28;20108;-78
2023/02/27 06:30:56;;;;;;;9.25;4.30;;;;;;;;;;5055526;28;20032;-78
2023/02/27 06:33:23;;;;;;;7.32;4.00;;;;;;;;;;5038803;28;20384;-77
2023/02/27 06:35:49;;;;;;;8.95;3.42;;;;;;;;;;5064871;28;20013;-80
2023/02/27 06:38:15;;;;;;;8.57;4.43;;;;;;;;;;5062347;28;20093;-77
2023/02/27 06:40:42;;;;;;;7.70;3.97;;;;;;;;;;5056993;28;20036;-78
2023/02/27 06:43:08;;;;;;;6.55;3.28;;;;;;;;;;5070004;28;20029;-78
2023/02/27 06:45:34;;;;;;;5.65;3.20;;;;;;;;;;5067466;28;20044;-77
2023/02/27 06:48:00;;;;;;;8.68;4.85;;;;;;;;;;5059899;28;20025;-77
2023/02/27 06:50:27;;;;;;;10.18;6.00;;;;;;;;;;5059004;28;20017;-78
2023/02/27 06:52:53;;;;;;;10.95;6.88;;;;;;;;;;5068636;28;20036;-78
2023/02/27 06:55:21;;;;;;;9.48;5.43;;;;;;;;;;5055813;28;20029;-78
2023/02/27 06:57:47;;;;;;;11.27;5.65;;;;;;;;;;5062918;28;20039;-77
2023/02/27 07:00:15;;;;;;;8.80;5.53;;;;;;;;;;5065880;28;20031;-77
2023/02/27 07:02:41;;;;;;;13.85;6.18;;;;;;;;;;5073289;28;20143;-76
2023/02/27 07:05:07;;;;;;;13.52;6.00;;;;;;;;;;5060743;28;20191;-76
2023/02/27 07:07:33;;;;;;;9.10;5.45;;;;;;;;;;5071817;28;20022;-77
2023/02/27 07:09:59;;;;;;;12.95;5.50;;;;;;;;;;5065632;28;20025;-77
2023/02/27 07:12:25;;;;;;;12.80;6.82;;;;;;;;;;5064348;28;20474;-76
2023/02/27 07:14:51;;;;;;;9.43;4.97;;;;;;;;;;5052843;28;20095;-75
2023/02/27 07:17:17;;;;;;;11.13;5.45;;;;;;;;;;5058007;28;20256;-77
2023/02/27 07:19:44;;;;;;;7.00;4.30;;;;;;;;;;5068096;28;20036;-77
2023/02/27 07:22:10;;;;;;;9.48;4.95;;;;;;;;;;5065104;28;20123;-76
2023/02/27 07:24:36;;;;;;;10.02;3.90;;;;;;;;;;5060710;28;20033;-75
2023/02/27 07:27:02;;;;;;;7.35;4.03;;;;;;;;;;5055297;28;20466;-77
2023/02/27 07:29:28;;;;;;;6.60;4.35;;;;;;;;;;5070132;28;20029;-77
2023/02/27 07:31:54;;;;;;;6.63;3.88;;;;;;;;;;5036631;28;20075;-78
2023/02/27 07:34:20;;;;;;;9.30;4.10;;;;;;;;;;5065986;28;20025;-77
2023/02/27 07:36:46;;;;;;;7.43;3.83;;;;;;;;;;5058810;28;20048;-78
2023/02/27 07:39:13;;;;;;;9.38;3.90;;;;;;;;;;5073284;28;20024;-78
2023/02/27 07:41:39;;;;;;;6.90;3.20;;;;;;;;;;5068429;28;20479;-78
2023/02/27 07:44:08;;;;;;;7.32;3.90;;;;;;;;;;5063574;28;20036;-77
2023/02/27 07:46:34;;;;;;;6.68;2.95;;;;;;;;;;5060619;28;20397;-77
2023/02/27 07:49:00;;;;;;;4.68;2.60;;;;;;;;;;5052204;28;20028;-77
2023/02/27 07:51:26;;;;;;;5.47;3.60;;;;;;;;;;5058420;28;20017;-77
2023/02/27 07:53:52;;;;;;;6.57;3.20;;;;;;;;;;5066140;28;20021;-78
2023/02/27 07:56:18;;;;;;;7.00;3.13;;;;;;;;;;5065784;28;20512;-79
2023/02/27 07:58:44;;;;;;;6.10;2.85;;;;;;;;;;5059026;28;20100;-78
2023/02/27 08:01:10;;;;;;;5.15;2.70;;;;;;;;;;5070489;28;20066;-79
2023/02/27 08:03:36;;;;;;;5.88;2.92;;;;;;;;;;5058787;28;20071;-78
2023/02/27 08:06:03;;;;;;;5.20;3.10;;;;;;;;;;5066877;28;20025;-74
2023/02/27 08:08:29;;;;;;;5.90;3.55;;;;;;;;;;5066772;28;20039;-64
2023/02/27 08:10:55;;;;;;;4.53;2.70;;;;;;;;;;5057361;28;20025;-65
2023/02/27 08:13:21;;;;;;;7.47;3.33;;;;;;;;;;5037251;28;20031;-62
2023/02/27 08:15:47;;;;;;;6.13;3.00;;;;;;;;;;5060684;28;20390;-65
2023/02/27 08:18:13;;;;;;;6.80;3.38;;;;;;;;;;5062765;28;20055;-65
2023/02/27 08:20:39;;;;;;;11.10;3.20;;;;;;;;;;5067833;28;20040;-72
2023/02/27 08:23:06;;;;;;;7.95;3.58;;;;;;;;;;5057468;28;20029;-79
2023/02/27 08:25:32;;;;;;;8.88;2.95;;;;;;;;;;5075095;28;20036;-77
2023/02/27 08:27:58;;;;;;;6.97;3.30;;;;;;;;;;5064733;28;20112;-78
2023/02/27 08:30:24;;;;;;;7.15;3.20;;;;;;;;;;5066001;28;20117;-77
2023/02/27 08:32:50;;;;;;;5.55;3.22;;;;;;;;;;5057769;28;20044;-79
2023/02/27 08:35:16;;;;;;;3.67;2.40;;;;;;;;;;5070735;28;20426;-78
2023/02/27 08:37:42;;;;;;;8.52;3.10;;;;;;;;;;5059966;28;20093;-77
2023/02/27 08:40:09;;;;;;;5.72;2.78;;;;;;;;;;5063735;28;20507;-75
2023/02/27 08:42:36;;;;;;;5.30;3.00;;;;;;;;;;5067194;28;20033;-75
2023/02/27 08:45:02;;;;;;;5.68;2.92;;;;;;;;;;5056843;28;20032;-80
2023/02/27 08:47:28;;;;;;;5.38;2.83;;;;;;;;;;5055510;28;20032;-77
2023/02/27 08:49:55;;;;;;;6.68;3.50;;;;;;;;;;5065664;28;20083;-76
2023/02/27 08:52:21;;;;;;;4.72;2.70;;;;;;;;;;5046765;28;20456;-76
2023/02/27 08:54:47;;;;;;;7.43;3.10;;;;;;;;;;5057376;28;20021;-75
2023/02/27 08:57:13;;;;;;;5.22;2.97;;;;;;;;;;5069130;28;20029;-75
2023/02/27 08:59:39;;;;;;;5.82;2.88;;;;;;;;;;5040832;28;20031;-75
2023/02/27 09:02:05;;;;;;;6.15;3.00;;;;;;;;;;5063478;28;20021;-76
2023/02/27 09:04:31;;;;;;;6.40;3.28;;;;;;;;;;5066480;28;20055;-74
2023/02/27 09:06:57;;;;;;;6.13;3.40;;;;;;;;;;5056421;28;20025;-74
2023/02/27 09:09:23;;;;;;;6.68;3.40;;;;;;;;;;5068560;28;20063;-76
2023/02/27 09:11:50;;;;;;;4.97;3.17;;;;;;;;;;5060038;28;20025;-75
2023/02/27 09:14:17;;;;;;;6.03;3.20;;;;;;;;;;5061552;28;20067;-75
2023/02/27 09:16:44;;;;;;;6.85;3.10;;;;;;;;;;5067256;28;20032;-77
2023/02/27 09:19:10;;;;;;;7.65;2.83;;;;;;;;;;5038133;28;20375;-77
2023/02/27 09:21:36;;;;;;;5.18;3.10;;;;;;;;;;5067058;28;20033;-77
2023/02/27 09:24:03;;;;;;;8.77;3.03;;;;;;;;;;5061411;28;20036;-77
2023/02/27 09:26:29;;;;;;;5.22;3.20;;;;;;;;;;5059655;28;20043;-79
2023/02/27 09:28:55;;;;;;;4.82;3.00;;;;;;;;;;5068477;28;20024;-77
2023/02/27 09:31:21;;;;;;;5.88;2.92;;;;;;;;;;5039342;28;20272;-77
2023/02/27 09:33:47;;;;;;;5.05;2.88;;;;;;;;;;5065176;28;20021;-77
2023/02/27 09:36:13;;;;;;;4.78;2.97;;;;;;;;;;5062731;28;20024;-76
2023/02/27 09:38:39;;;;;;;5.22;2.83;;;;;;;;;;5057436;28;20202;-76
2023/02/27 09:41:06;;;;;;;10.30;3.13;;;;;;;;;;5050704;28;20082;-77
2023/02/27 09:43:49;;;;;;;7.43;3.00;;;;;;;;;;5057148;28;20498;-77
2023/02/27 09:46:17;;;;;;;5.90;2.70;;;;;;;;;;5061098;28;20025;-77
2023/02/27 09:48:46;;;;;;;5.75;3.42;;;;;;;;;;5066570;28;20035;-77
2023/02/27 09:51:14;;;;;;;6.97;3.38;;;;;;;;;;5055195;28;20024;-77
2023/02/27 09:53:45;;;;;;;5.30;3.47;;;;;;;;;;5065893;28;20052;-78
2023/02/27 09:56:11;;;;;;;;;;;;;;;;;;5062938;28;20152;-78
2023/02/27 09:58:42;;;;;;;6.70;3.50;;;;;;;;;;5057585;28;19947;-76
2023/02/27 10:01:13;;;;;;;6.50;3.65;;;;;;;;;;5068511;28;20046;-78
2023/02/27 10:03:40;;;;;;;;;;;;;;;;;;5058154;28;20037;-75
2023/02/27 10:06:06;;;;;;;10.13;2.97;;;;;;;;;;5062463;28;19923;-78
2023/02/27 10:08:32;;;;;;;5.85;3.72;;;;;;;;;;5064912;28;20036;-79
2023/02/27 10:11:01;;;;;;;5.75;3.30;;;;;;;;;;5055561;28;20059;-77
2023/02/27 10:13:33;;;;;;;7.72;4.13;;;;;;;;;;5049198;28;20025;-76
2023/02/27 10:15:59;;;;;;;6.88;3.70;;;;;;;;;;5060037;28;20028;-74
2023/02/27 10:18:30;;;;;;;10.02;3.30;;;;;;;;;;5041031;28;20064;-75
2023/02/27 10:20:56;;;;;;;8.70;3.70;;;;;;;;;;5068046;28;20031;-77
2023/02/27 10:23:34;;;;;;;6.55;3.35;;;;;;;;;;5055243;28;20115;-76
2023/02/27 10:26:01;;;;;;;7.15;3.63;;;;;;;;;;5062836;28;20044;-79
2023/02/27 10:28:27;;;;;;;6.00;3.63;;;;;;;;;;5045054;28;20024;-78
2023/02/27 10:30:54;;;;;;;9.77;3.05;;;;;;;;;;5073264;28;20449;-76
2023/02/27 10:33:40;;;;;;;6.35;2.97;;;;;;;;;;5061249;28;20084;-76
2023/02/27 10:36:17;;;;;;;5.93;2.75;;;;;;;;;;5076872;28;20031;-76
2023/02/27 10:38:53;;;;;;;5.70;2.67;;;;;;;;;;5063767;28;20025;-78
2023/02/27 10:41:20;;;;;;;7.03;2.88;;;;;;;;;;5059966;28;20029;-76
2023/02/27 10:43:46;;;;;;;12.15;3.10;;;;;;;;;;5064394;28;20024;-76
2023/02/27 10:46:24;;;;;;;5.88;2.72;;;;;;;;;;5047502;28;20033;-77
2023/02/27 10:48:50;;;;;;;8.85;2.78;;;;;;;;;;5067211;28;20110;-76
2023/02/27 10:51:35;;;;;;;7.38;2.72;;;;;;;;;;5055035;28;20073;-76
2023/02/27 10:54:25;;;;;;;8.35;3.47;;;;;;;;;;5062842;28;20021;-77
2023/02/27 10:56:55;;;;;;;6.20;2.85;;;;;;;;;;5067698;28;20036;-78
2023/02/27 10:59:30;;;;;;;10.60;3.72;;;;;;;;;;5037983;28;20398;-76
2023/02/27 11:02:22;;;;;;;6.28;3.08;;;;;;;;;;5062849;28;20053;-75
2023/02/27 11:04:52;;;;;;;6.85;3.33;;;;;;;;;;5066878;28;20036;-75
2023/02/27 11:07:25;;;;;;;6.37;3.53;;;;;;;;;;5036203;28;20020;-76
2023/02/27 11:09:59;;;;;;;5.55;3.10;;;;;;;;;;5063263;28;20026;-75
2023/02/27 11:12:30;;;;;;;4.10;2.75;;;;;;;;;;5063010;28;20104;-75
2023/02/27 11:14:57;;;;;;;3.75;2.47;;;;;;;;;;5054533;28;20407;-75
2023/02/27 11:17:31;;;;;;;5.88;2.67;;;;;;;;;;5040573;28;20032;-75
2023/02/27 11:19:58;;;;;;;6.75;2.85;;;;;;;;;;5059477;28;20139;-75
2023/02/27 11:22:25;;;;;;;8.20;2.78;;;;;;;;;;5061331;28;20037;-74
2023/02/27 11:24:52;;;;;;;4.40;3.20;;;;;;;;;;5063796;28;20046;-76
2023/02/27 11:27:20;;;;;;;5.97;2.30;;;;;;;;;;5063390;28;20470;-76
2023/02/27 11:30:00;;;;;;;6.53;3.40;;;;;;;;;;5054719;28;20100;-79
2023/02/27 11:32:35;;;;;;;6.35;3.45;;;;;;;;;;5050727;28;20067;-79
2023/02/27 11:35:03;;;;;;;5.45;3.25;;;;;;;;;;5065505;28;20017;-75
2023/02/27 11:37:38;;;;;;;5.25;3.13;;;;;;;;;;5051908;28;20036;-76
2023/02/27 11:40:12;;;;;;;5.38;2.40;;;;;;;;;;5029903;28;20020;-76
2023/02/27 11:42:43;;;;;;;6.65;2.95;;;;;;;;;;5044107;28;20025;-76
2023/02/27 11:45:29;;;;;;;3.47;2.33;;;;;;;;;;5069671;28;20413;-78
2023/02/27 11:48:00;;;;;;;7.22;2.60;;;;;;;;;;5044086;28;20021;-76
2023/02/27 11:50:32;;;;;;;4.68;1.95;;;;;;;;;;5063850;28;20052;-76
2023/02/27 11:53:05;;;;;;;5.60;2.72;;;;;;;;;;5050813;28;20683;-76
2023/02/27 11:55:31;;;;;;;5.57;2.42;;;;;;;;;;5057714;28;20156;-78
2023/02/27 11:58:01;;;;;;;6.80;3.00;;;;;;;;;;5067823;28;20013;-77
2023/02/27 12:00:42;;;;;;;3.53;2.50;;;;;;;;;;5053539;28;20475;-76
2023/02/27 12:03:18;;;;;;;9.97;3.20;;;;;;;;;;5053456;28;20376;-76
2023/02/27 12:05:46;;;;;;;8.82;2.78;;;;;;;;;;5053262;28;20263;-74
2023/02/27 12:08:15;;;;;;;6.35;2.35;;;;;;;;;;5053456;28;20028;-76
2023/02/27 12:10:50;;;;;;;4.75;2.30;;;;;;;;;;5052474;28;20029;-78
2023/02/27 12:13:19;;;;;;;3.95;2.55;;;;;;;;;;5054045;28;20384;-76
2023/02/27 12:15:48;;;;;;;5.38;2.28;;;;;;;;;;5054252;28;20067;-76
2023/02/27 12:18:22;;;;;;;4.50;2.60;;;;;;;;;;5053799;28;20495;-76
2023/02/27 12:20:58;;;;;;;3.70;1.95;;;;;;;;;;5045553;28;20029;-76
2023/02/27 12:23:27;;;;;;;7.60;1.92;;;;;;;;;;5054418;28;20491;-76
2023/02/27 12:26:00;;;;;;;7.72;2.47;;;;;;;;;;5036499;28;20017;-76
2023/02/27 12:28:32;;;;;;;6.60;2.42;;;;;;;;;;5053635;28;20395;-77
2023/02/27 12:31:04;;;;;;;8.60;2.67;;;;;;;;;;5053578;28;20031;-77
2023/02/27 12:33:37;;;;;;;4.22;2.60;;;;;;;;;;5054184;28;20155;-77
2023/02/27 12:36:03;;;;;;;3.35;2.08;;;;;;;;;;5053966;28;20025;-77
2023/02/27 12:38:30;;;;;;;6.18;2.13;;;;;;;;;;5053776;28;20032;-76
2023/02/27 12:41:01;;;;;;;5.80;2.25;;;;;;;;;;5053898;28;20029;-76
2023/02/27 12:43:39;;;;;;;4.85;2.83;;;;;;;;;;5053061;28;20035;-76
2023/02/27 12:46:08;;;;;;;4.28;2.33;;;;;;;;;;5051954;28;20036;-77
2023/02/27 12:48:47;;;;;;;4.30;1.90;;;;;;;;;;5051583;28;20035;-77
2023/02/27 12:51:33;;;;;;;8.48;2.72;;;;;;;;;;5051353;28;20021;-77
2023/02/27 12:54:08;;;;;;;4.40;2.47;;;;;;;;;;5033819;28;20048;-77
2023/02/27 12:56:37;;;;;;;12.02;2.80;;;;;;;;;;5051735;28;20152;-76
2023/02/27 12:59:18;;;;;;;3.22;2.00;;;;;;;;;;5052284;28;20025;-76
2023/02/27 13:01:44;;;;;;;;;;;;;;;;;;5054013;28;20021;-76
2023/02/27 13:04:13;;;;;;;3.15;2.08;;;;;;;;;;5053142;28;19905;-76
2023/02/27 13:06:50;;;;;;;4.22;2.22;;;;;;;;;;5053142;28;20570;-76
2023/02/27 13:09:16;;;;;;;5.05;2.25;;;;;;;;;;5053071;28;20103;-76
2023/02/27 13:11:46;;;;;;;4.82;2.40;;;;;;;;;;5053051;28;20506;-75
2023/02/27 13:14:23;;;;;;;3.60;2.20;;;;;;;;;;5053514;28;20075;-75
2023/02/27 13:17:09;;;;;;;5.15;2.20;;;;;;;;;;5052642;28;20029;-76
2023/02/27 13:19:38;;;;;;;5.07;2.22;;;;;;;;;;5052701;28;20025;-79
2023/02/27 13:22:19;;;;;;;5.60;2.72;;;;;;;;;;5052659;28;20025;-76
2023/02/27 13:24:45;;;;;;;;;;;;;;;;;;5053030;28;20029;-77
2023/02/27 13:27:14;;;;;;;3.92;2.10;;;;;;;;;;5052100;28;19912;-78
2023/02/27 13:29:46;;;;;;;4.93;2.70;;;;;;;;;;5034592;28;20652;-76
2023/02/27 13:32:18;;;;;;;7.30;3.22;;;;;;;;;;5052467;28;20017;-75
2023/02/27 13:35:03;;;;;;;8.13;2.25;;;;;;;;;;5052458;28;20029;-77
2023/02/27 13:37:48;;;;;;;2.65;1.67;;;;;;;;;;5051949;28;20098;-76
2023/02/27 13:40:35;;;;;;;3.65;1.17;;;;;;;;;;5052088;28;20029;-76
2023/02/27 13:43:19;;;;;;;3.25;1.05;;;;;;;;;;5052166;28;20037;-76
2023/02/27 13:45:50;;;;;;;4.60;1.17;;;;;;;;;;5034314;28;20025;-77
2023/02/27 13:48:44;;;;;;;4.25;1.13;;;;;;;;;;5052211;28;20036;-76
2023/02/27 13:51:30;;;;;;;0.95;0.65;;;;;;;;;;5045758;28;20044;-76
2023/02/27 13:54:08;;;;;;;1.55;0.90;;;;;;;;;;5032115;28;20096;-76
2023/02/27 13:56:34;;;;;;;1.77;0.75;;;;;;;;;;5032556;28;20014;-77
2023/02/27 13:59:18;;;;;;;0.73;0.70;;;;;;;;;;5014442;28;20025;-76
2023/02/27 14:02:10;;;;;;;2.92;0.90;;;;;;;;;;5031700;28;20072;-78
2023/02/27 14:04:39;;;;;;;4.03;0.68;;;;;;;;;;4977939;28;20377;-75
2023/02/27 14:07:08;;;;;;;2.42;0.93;;;;;;;;;;5032171;28;20543;-76
2023/02/27 14:09:39;;;;;;;2.05;0.73;;;;;;;;;;5032010;28;20089;-78
2023/02/27 14:12:06;;;;;;;2.70;0.73;;;;;;;;;;5032371;28;20032;-75
2023/02/27 14:14:35;;;;;;;1.83;0.57;;;;;;;;;;5032248;28;20105;-76
2023/02/27 14:17:02;;;;;;;2.65;1.10;;;;;;;;;;5032097;28;20017;-77
2023/02/27 14:19:43;;;;;;;1.77;0.77;;;;;;;;;;5014247;28;20033;-76
2023/02/27 14:22:12;;;;;;;8.02;1.10;;;;;;;;;;5031910;28;20573;-76
2023/02/27 14:24:39;;;;;;;8.07;0.70;;;;;;;;;;5032463;28;20064;-75
2023/02/27 14:27:15;;;;;;;1.50;0.40;;;;;;;;;;5032428;28;20083;-75
2023/02/27 14:29:44;;;;;;;1.52;0.50;;;;;;;;;;5032221;28;20029;-76
2023/02/27 14:32:18;;;;;;;2.72;0.47;;;;;;;;;;5031953;28;20115;-73
2023/02/27 14:34:44;;;;;;;6.53;0.70;;;;;;;;;;5032146;28;20018;-76
2023/02/27 14:37:13;;;;;;;0.93;0.38;;;;;;;;;;5031628;28;20567;-75
2023/02/27 14:39:40;;;;;;;3.55;0.63;;;;;;;;;;5014039;28;20033;-79
2023/02/27 14:42:15;;;;;;;1.48;0.40;;;;;;;;;;5014131;28;20491;-76
2023/02/27 14:44:43;;;;;;;3.92;0.77;;;;;;;;;;5031743;28;20561;-75
2023/02/27 14:47:29;;;;;;;1.83;0.65;;;;;;;;;;5031488;28;20388;-76
2023/02/27 14:49:55;;;;;;;2.88;0.47;;;;;;;;;;5031483;28;20389;-73
2023/02/27 14:52:21;;;;;;;2.83;0.40;;;;;;;;;;5031763;28;20047;-75
2023/02/27 14:54:48;;;;;;;4.55;1.15;;;;;;;;;;5031556;28;20475;-75
2023/02/27 14:57:21;;;;;;;0.40;0.35;;;;;;;;;;5031345;28;20049;-75
2023/02/27 14:59:48;;;;;;;2.97;0.55;;;;;;;;;;5031480;28;20105;-76